TAP18U LPLA-LPPT
Flight info
| Callsign | TAP18U |
|---|---|
| Flight time | 2h 13m |
| Altitude | 35000 |
| Route | MIPRU DCT PODEL DCT 36N020W DCT LUTAK/N0450F360 DCT ESUTI |
| Aircraft | A321/M-SDE3FGHIRWY/LB1 |
Departure
| Time | 2026-04-20 12:40 |
|---|---|
| Airport | Lajes Airport (LPLA) |
Arrival
| Time | 2026-04-20 14:53 |
|---|---|
| Airport | Lisbon Humberto Delgado Airport (LPPT) |
| Time | Latitude | Longitude | Altitude | Speed | Heading |
|---|---|---|---|---|---|
| 2026-04-20 11:53 | 38.77037 | -27.09625 | 161 ft | 0 kts | 261° |
| 2026-04-20 12:34 | 38.77034 | -27.09651 | 161 ft | 10 kts | 261° |
| 2026-04-20 12:35 | 38.76985 | -27.09662 | 162 ft | 9 kts | 142° |
| 2026-04-20 12:35 | 38.76928 | -27.09610 | 164 ft | 10 kts | 145° |
| 2026-04-20 12:35 | 38.76868 | -27.09552 | 165 ft | 11 kts | 141° |
| 2026-04-20 12:35 | 38.76786 | -27.09467 | 167 ft | 16 kts | 141° |
| 2026-04-20 12:36 | 38.76693 | -27.09369 | 171 ft | 16 kts | 140° |
| 2026-04-20 12:36 | 38.76606 | -27.09279 | 173 ft | 15 kts | 140° |
| 2026-04-20 12:36 | 38.76522 | -27.09189 | 175 ft | 15 kts | 141° |
| 2026-04-20 12:36 | 38.76433 | -27.09100 | 178 ft | 15 kts | 142° |
| 2026-04-20 12:37 | 38.76352 | -27.09019 | 181 ft | 14 kts | 141° |
| 2026-04-20 12:37 | 38.76258 | -27.08919 | 183 ft | 20 kts | 140° |
| 2026-04-20 12:37 | 38.76144 | -27.08800 | 186 ft | 22 kts | 142° |
| 2026-04-20 12:37 | 38.76028 | -27.08677 | 191 ft | 21 kts | 142° |
| 2026-04-20 12:38 | 38.75921 | -27.08565 | 197 ft | 18 kts | 140° |
| 2026-04-20 12:38 | 38.75829 | -27.08469 | 200 ft | 16 kts | 141° |
| 2026-04-20 12:38 | 38.75724 | -27.08359 | 198 ft | 21 kts | 140° |
| 2026-04-20 12:38 | 38.75601 | -27.08232 | 196 ft | 22 kts | 140° |
| 2026-04-20 12:39 | 38.75367 | -27.08055 | 191 ft | 16 kts | 226° |
| 2026-04-20 12:39 | 38.75333 | -27.08182 | 192 ft | 15 kts | 301° |
| 2026-04-20 12:39 | 38.75497 | -27.08355 | 192 ft | 60 kts | 322° |
| 2026-04-20 12:40 | 38.75996 | -27.08873 | 188 ft | 123 kts | 321° |
| 2026-04-20 12:40 | 38.76781 | -27.09713 | 334 ft | 161 kts | 322° |
| 2026-04-20 12:40 | 38.77680 | -27.10584 | 939 ft | 161 kts | 328° |
| 2026-04-20 12:40 | 38.78589 | -27.11382 | 1435 ft | 160 kts | 328° |
| 2026-04-20 12:41 | 38.79598 | -27.11963 | 1862 ft | 160 kts | 356° |
| 2026-04-20 12:41 | 38.80693 | -27.11598 | 2121 ft | 175 kts | 29° |
| 2026-04-20 12:41 | 38.81569 | -27.10261 | 2471 ft | 221 kts | 67° |
| 2026-04-20 12:41 | 38.81634 | -27.08153 | 2858 ft | 262 kts | 103° |
| 2026-04-20 12:42 | 38.80592 | -27.06149 | 3408 ft | 281 kts | 140° |
| 2026-04-20 12:42 | 38.78915 | -27.04900 | 4213 ft | 282 kts | 152° |
| 2026-04-20 12:42 | 38.77124 | -27.03855 | 4932 ft | 286 kts | 159° |
| 2026-04-20 12:42 | 38.75319 | -27.02871 | 5611 ft | 288 kts | 145° |
| 2026-04-20 12:43 | 38.73875 | -27.01115 | 6331 ft | 286 kts | 125° |
| 2026-04-20 12:43 | 38.72690 | -26.99067 | 7012 ft | 289 kts | 122° |
| 2026-04-20 12:43 | 38.71492 | -26.97016 | 7642 ft | 294 kts | 124° |
| 2026-04-20 12:43 | 38.70197 | -26.94957 | 8284 ft | 300 kts | 127° |
| 2026-04-20 12:44 | 38.68836 | -26.92924 | 8907 ft | 304 kts | 128° |
| 2026-04-20 12:44 | 38.67411 | -26.90884 | 9530 ft | 309 kts | 129° |
| 2026-04-20 12:44 | 38.65960 | -26.88853 | 10131 ft | 313 kts | 130° |
| 2026-04-20 12:44 | 38.64464 | -26.86785 | 10606 ft | 322 kts | 131° |
| 2026-04-20 12:45 | 38.62915 | -26.84655 | 10888 ft | 338 kts | 131° |
| 2026-04-20 12:45 | 38.61263 | -26.82395 | 11165 ft | 353 kts | 131° |
| 2026-04-20 12:45 | 38.59566 | -26.80078 | 11436 ft | 368 kts | 131° |
| 2026-04-20 12:45 | 38.57771 | -26.77632 | 11697 ft | 382 kts | 132° |
| 2026-04-20 12:46 | 38.55916 | -26.75107 | 11944 ft | 396 kts | 132° |
| 2026-04-20 12:46 | 38.54012 | -26.72518 | 12227 ft | 408 kts | 132° |
| 2026-04-20 12:46 | 38.52058 | -26.69864 | 12713 ft | 413 kts | 132° |
| 2026-04-20 12:46 | 38.50084 | -26.67181 | 13257 ft | 416 kts | 132° |
| 2026-04-20 12:47 | 38.48104 | -26.64492 | 13760 ft | 420 kts | 133° |
| 2026-04-20 12:47 | 38.46086 | -26.61756 | 14261 ft | 424 kts | 133° |
| 2026-04-20 12:47 | 38.44063 | -26.59017 | 14788 ft | 427 kts | 133° |
| 2026-04-20 12:47 | 38.42027 | -26.56258 | 15268 ft | 431 kts | 133° |
| 2026-04-20 12:48 | 38.39966 | -26.53471 | 15737 ft | 435 kts | 133° |
| 2026-04-20 12:48 | 38.37916 | -26.50698 | 16192 ft | 438 kts | 133° |
| 2026-04-20 12:48 | 38.35800 | -26.47838 | 16661 ft | 442 kts | 133° |
| 2026-04-20 12:48 | 38.33707 | -26.45011 | 17126 ft | 445 kts | 133° |
| 2026-04-20 12:49 | 38.31580 | -26.42143 | 17562 ft | 448 kts | 133° |
| 2026-04-20 12:49 | 38.29430 | -26.39247 | 18014 ft | 451 kts | 133° |
| 2026-04-20 12:49 | 38.27180 | -26.36433 | 18465 ft | 454 kts | 137° |
| 2026-04-20 12:49 | 38.24806 | -26.33829 | 18871 ft | 458 kts | 141° |
| 2026-04-20 12:50 | 38.22308 | -26.31269 | 19268 ft | 461 kts | 141° |
| 2026-04-20 12:50 | 38.19817 | -26.28741 | 19695 ft | 463 kts | 142° |
| 2026-04-20 12:50 | 38.17260 | -26.26146 | 20075 ft | 467 kts | 141° |
| 2026-04-20 12:50 | 38.14724 | -26.23569 | 20427 ft | 471 kts | 141° |
| 2026-04-20 12:51 | 38.12187 | -26.20992 | 20791 ft | 474 kts | 141° |
| 2026-04-20 12:51 | 38.09592 | -26.18350 | 21185 ft | 476 kts | 141° |
| 2026-04-20 12:51 | 38.07025 | -26.15736 | 21560 ft | 478 kts | 141° |
| 2026-04-20 12:51 | 38.04414 | -26.13081 | 21919 ft | 481 kts | 141° |
| 2026-04-20 12:52 | 38.01803 | -26.10429 | 22243 ft | 484 kts | 141° |
| 2026-04-20 12:52 | 37.99187 | -26.07773 | 22579 ft | 487 kts | 141° |
| 2026-04-20 12:52 | 37.96524 | -26.05071 | 22910 ft | 490 kts | 141° |
| 2026-04-20 12:52 | 37.93872 | -26.02383 | 23205 ft | 493 kts | 140° |
| 2026-04-20 12:53 | 37.91188 | -25.99666 | 23542 ft | 495 kts | 141° |
| 2026-04-20 12:53 | 37.88486 | -25.96932 | 23878 ft | 497 kts | 140° |
| 2026-04-20 12:53 | 37.85791 | -25.94205 | 24174 ft | 499 kts | 141° |
| 2026-04-20 12:53 | 37.83085 | -25.91470 | 24458 ft | 501 kts | 141° |
| 2026-04-20 12:54 | 37.80334 | -25.88694 | 24760 ft | 503 kts | 140° |
| 2026-04-20 12:54 | 37.77614 | -25.85951 | 25049 ft | 505 kts | 141° |
| 2026-04-20 12:54 | 37.74862 | -25.83180 | 25342 ft | 507 kts | 140° |
| 2026-04-20 12:54 | 37.72094 | -25.80392 | 25622 ft | 509 kts | 141° |
| 2026-04-20 12:55 | 37.69318 | -25.77602 | 25871 ft | 511 kts | 140° |
| 2026-04-20 12:55 | 37.66560 | -25.74836 | 26145 ft | 513 kts | 141° |
| 2026-04-20 12:55 | 37.63839 | -25.71906 | 26467 ft | 512 kts | 133° |
| 2026-04-20 12:55 | 37.61641 | -25.68409 | 26806 ft | 508 kts | 119° |
| 2026-04-20 12:56 | 37.60112 | -25.64434 | 27156 ft | 500 kts | 106° |
| 2026-04-20 12:56 | 37.59032 | -25.60303 | 27605 ft | 496 kts | 103° |
| 2026-04-20 12:56 | 37.58026 | -25.56179 | 27958 ft | 496 kts | 102° |
| 2026-04-20 12:56 | 37.57014 | -25.52002 | 28268 ft | 496 kts | 102° |
| 2026-04-20 12:57 | 37.55984 | -25.47823 | 28614 ft | 496 kts | 103° |
| 2026-04-20 12:57 | 37.54955 | -25.43711 | 28955 ft | 496 kts | 103° |
| 2026-04-20 12:57 | 37.53916 | -25.39610 | 29294 ft | 495 kts | 103° |
| 2026-04-20 12:57 | 37.52866 | -25.35502 | 29619 ft | 495 kts | 103° |
| 2026-04-20 12:58 | 37.51789 | -25.31306 | 29912 ft | 495 kts | 104° |
| 2026-04-20 12:58 | 37.50721 | -25.27162 | 30218 ft | 495 kts | 104° |
| 2026-04-20 12:58 | 37.49655 | -25.23041 | 30528 ft | 494 kts | 104° |
| 2026-04-20 12:58 | 37.48585 | -25.18917 | 30830 ft | 494 kts | 104° |
| 2026-04-20 12:59 | 37.47527 | -25.14836 | 31094 ft | 494 kts | 104° |
| 2026-04-20 12:59 | 37.46466 | -25.10755 | 31355 ft | 494 kts | 104° |
| 2026-04-20 12:59 | 37.45397 | -25.06647 | 31592 ft | 494 kts | 104° |
| 2026-04-20 12:59 | 37.44326 | -25.02543 | 31852 ft | 494 kts | 104° |
| 2026-04-20 13:00 | 37.43265 | -24.98482 | 32114 ft | 493 kts | 104° |
| 2026-04-20 13:00 | 37.42189 | -24.94369 | 32383 ft | 493 kts | 104° |
| 2026-04-20 13:00 | 37.41122 | -24.90292 | 32623 ft | 493 kts | 104° |
| 2026-04-20 13:00 | 37.40041 | -24.86174 | 32870 ft | 493 kts | 104° |
| 2026-04-20 13:01 | 37.38976 | -24.82124 | 33129 ft | 492 kts | 104° |
| 2026-04-20 13:01 | 37.37902 | -24.78048 | 33354 ft | 492 kts | 104° |
| 2026-04-20 13:01 | 37.36816 | -24.73935 | 33566 ft | 492 kts | 104° |
| 2026-04-20 13:01 | 37.35734 | -24.69840 | 33739 ft | 494 kts | 104° |
| 2026-04-20 13:02 | 37.34662 | -24.65780 | 33923 ft | 494 kts | 104° |
| 2026-04-20 13:02 | 37.33584 | -24.61707 | 34085 ft | 495 kts | 104° |
| 2026-04-20 13:02 | 37.32488 | -24.57575 | 34264 ft | 496 kts | 105° |
| 2026-04-20 13:02 | 37.31402 | -24.53488 | 34438 ft | 497 kts | 105° |
| 2026-04-20 13:03 | 37.30313 | -24.49402 | 34580 ft | 498 kts | 105° |
| 2026-04-20 13:03 | 37.29204 | -24.45247 | 34750 ft | 498 kts | 105° |
| 2026-04-20 13:03 | 37.28116 | -24.41176 | 34904 ft | 498 kts | 105° |
| 2026-04-20 13:03 | 37.27004 | -24.37013 | 35019 ft | 499 kts | 105° |
| 2026-04-20 13:04 | 37.25908 | -24.32925 | 35072 ft | 499 kts | 106° |
| 2026-04-20 13:04 | 37.23701 | -24.24704 | 35083 ft | 500 kts | 106° |
| 2026-04-20 13:05 | 37.21467 | -24.16425 | 35078 ft | 500 kts | 106° |
| 2026-04-20 13:05 | 37.19250 | -24.08222 | 35073 ft | 498 kts | 106° |
| 2026-04-20 13:06 | 37.17019 | -23.99994 | 35071 ft | 499 kts | 106° |
| 2026-04-20 13:06 | 37.14782 | -23.91769 | 35065 ft | 498 kts | 107° |
| 2026-04-20 13:07 | 37.12564 | -23.83642 | 35055 ft | 498 kts | 106° |
| 2026-04-20 13:07 | 37.10313 | -23.75420 | 35049 ft | 497 kts | 107° |
| 2026-04-20 13:08 | 37.08072 | -23.67256 | 35047 ft | 497 kts | 107° |
| 2026-04-20 13:08 | 37.05832 | -23.59123 | 35028 ft | 496 kts | 107° |
| 2026-04-20 13:09 | 37.03581 | -23.50978 | 35026 ft | 495 kts | 107° |
| 2026-04-20 13:09 | 37.01324 | -23.42836 | 35021 ft | 495 kts | 107° |
| 2026-04-20 13:10 | 36.99083 | -23.34767 | 35011 ft | 495 kts | 108° |
| 2026-04-20 13:10 | 36.96814 | -23.26622 | 35008 ft | 495 kts | 108° |
| 2026-04-20 13:11 | 36.94557 | -23.18553 | 35002 ft | 494 kts | 108° |
| 2026-04-20 13:11 | 36.92285 | -23.10464 | 34996 ft | 494 kts | 108° |
| 2026-04-20 13:12 | 36.90019 | -23.02399 | 34994 ft | 493 kts | 108° |
| 2026-04-20 13:12 | 36.87738 | -22.94318 | 34994 ft | 494 kts | 108° |
| 2026-04-20 13:13 | 36.85464 | -22.86284 | 34989 ft | 493 kts | 108° |
| 2026-04-20 13:13 | 36.83184 | -22.78251 | 34983 ft | 493 kts | 108° |
| 2026-04-20 13:14 | 36.80880 | -22.70156 | 34980 ft | 493 kts | 108° |
| 2026-04-20 13:14 | 36.78593 | -22.62147 | 34978 ft | 493 kts | 108° |
| 2026-04-20 13:15 | 36.76295 | -22.54127 | 34973 ft | 492 kts | 108° |
| 2026-04-20 13:15 | 36.73995 | -22.46117 | 34971 ft | 491 kts | 108° |
| 2026-04-20 13:16 | 36.71704 | -22.38160 | 34966 ft | 491 kts | 108° |
| 2026-04-20 13:16 | 36.69392 | -22.30154 | 34961 ft | 490 kts | 109° |
| 2026-04-20 13:17 | 36.67090 | -22.22218 | 34954 ft | 490 kts | 109° |
| 2026-04-20 13:17 | 36.64779 | -22.14267 | 34947 ft | 490 kts | 109° |
| 2026-04-20 13:18 | 36.62449 | -22.06267 | 34939 ft | 490 kts | 109° |
| 2026-04-20 13:18 | 36.60133 | -21.98343 | 34937 ft | 489 kts | 109° |
| 2026-04-20 13:19 | 36.57821 | -21.90455 | 34932 ft | 488 kts | 109° |
| 2026-04-20 13:19 | 36.55492 | -21.82529 | 34919 ft | 487 kts | 109° |
| 2026-04-20 13:20 | 36.53170 | -21.74657 | 34915 ft | 487 kts | 109° |
| 2026-04-20 13:20 | 36.50844 | -21.66787 | 34908 ft | 486 kts | 109° |
| 2026-04-20 13:21 | 36.48518 | -21.58944 | 34910 ft | 487 kts | 109° |
| 2026-04-20 13:21 | 36.46176 | -21.51065 | 34904 ft | 486 kts | 109° |
| 2026-04-20 13:22 | 36.43835 | -21.43216 | 34898 ft | 486 kts | 109° |
| 2026-04-20 13:22 | 36.41499 | -21.35396 | 34891 ft | 485 kts | 109° |
| 2026-04-20 13:23 | 36.39146 | -21.27547 | 34886 ft | 484 kts | 110° |
| 2026-04-20 13:23 | 36.36798 | -21.19737 | 34886 ft | 484 kts | 110° |
| 2026-04-20 13:24 | 36.34446 | -21.11933 | 34891 ft | 483 kts | 110° |
| 2026-04-20 13:24 | 36.32096 | -21.04160 | 34889 ft | 482 kts | 110° |
| 2026-04-20 13:25 | 36.29755 | -20.96436 | 34880 ft | 482 kts | 110° |
| 2026-04-20 13:25 | 36.27395 | -20.88667 | 34868 ft | 482 kts | 110° |
| 2026-04-20 13:26 | 36.25029 | -20.80908 | 34866 ft | 482 kts | 110° |
| 2026-04-20 13:26 | 36.22665 | -20.73166 | 34859 ft | 480 kts | 110° |
| 2026-04-20 13:27 | 36.20315 | -20.65497 | 34852 ft | 480 kts | 110° |
| 2026-04-20 13:27 | 36.17941 | -20.57768 | 34845 ft | 479 kts | 111° |
| 2026-04-20 13:28 | 36.15580 | -20.50104 | 34841 ft | 478 kts | 111° |
| 2026-04-20 13:28 | 36.13224 | -20.42477 | 34830 ft | 478 kts | 111° |
| 2026-04-20 13:29 | 36.10854 | -20.34819 | 34820 ft | 476 kts | 111° |
| 2026-04-20 13:29 | 36.08490 | -20.27200 | 34820 ft | 475 kts | 111° |
| 2026-04-20 13:30 | 36.06117 | -20.19571 | 34819 ft | 476 kts | 111° |
| 2026-04-20 13:30 | 36.03756 | -20.12006 | 34814 ft | 475 kts | 111° |
| 2026-04-20 13:31 | 36.01951 | -20.04203 | 34811 ft | 475 kts | 99° |
| 2026-04-20 13:31 | 36.01544 | -19.96071 | 34798 ft | 474 kts | 86° |
| 2026-04-20 13:32 | 36.02559 | -19.88090 | 34795 ft | 473 kts | 75° |
| 2026-04-20 13:32 | 36.04304 | -19.80283 | 34783 ft | 473 kts | 73° |
| 2026-04-20 13:33 | 36.06078 | -19.72461 | 34773 ft | 474 kts | 73° |
| 2026-04-20 13:33 | 36.07820 | -19.64652 | 34778 ft | 474 kts | 73° |
| 2026-04-20 13:34 | 36.09552 | -19.56805 | 34771 ft | 474 kts | 73° |
| 2026-04-20 13:34 | 36.11272 | -19.48961 | 34772 ft | 475 kts | 74° |
| 2026-04-20 13:35 | 36.12989 | -19.41104 | 34764 ft | 475 kts | 74° |
| 2026-04-20 13:35 | 36.14710 | -19.33200 | 34889 ft | 478 kts | 75° |
| 2026-04-20 13:35 | 36.15575 | -19.29209 | 35073 ft | 476 kts | 75° |
| 2026-04-20 13:36 | 36.16427 | -19.25284 | 35236 ft | 475 kts | 75° |
| 2026-04-20 13:36 | 36.17270 | -19.21388 | 35384 ft | 474 kts | 75° |
| 2026-04-20 13:36 | 36.18118 | -19.17459 | 35514 ft | 473 kts | 75° |
| 2026-04-20 13:36 | 36.18968 | -19.13517 | 35633 ft | 473 kts | 75° |
| 2026-04-20 13:37 | 36.19814 | -19.09583 | 35737 ft | 473 kts | 75° |
| 2026-04-20 13:37 | 36.21497 | -19.01745 | 35747 ft | 473 kts | 75° |
| 2026-04-20 13:38 | 36.23184 | -18.93860 | 35754 ft | 474 kts | 75° |
| 2026-04-20 13:38 | 36.24851 | -18.86037 | 35754 ft | 474 kts | 75° |
| 2026-04-20 13:39 | 36.26529 | -18.78140 | 35753 ft | 474 kts | 75° |
| 2026-04-20 13:39 | 36.28197 | -18.70261 | 35750 ft | 474 kts | 75° |
| 2026-04-20 13:40 | 36.29859 | -18.62379 | 35748 ft | 474 kts | 75° |
| 2026-04-20 13:40 | 36.31514 | -18.54512 | 35734 ft | 473 kts | 75° |
| 2026-04-20 13:41 | 36.33086 | -18.47013 | 35732 ft | 473 kts | 76° |
| 2026-04-20 13:41 | 36.34730 | -18.39140 | 35725 ft | 474 kts | 76° |
| 2026-04-20 13:42 | 36.36365 | -18.31272 | 35735 ft | 473 kts | 76° |
| 2026-04-20 13:42 | 36.38819 | -18.19422 | 35718 ft | 473 kts | 77° |
| 2026-04-20 13:43 | 36.40451 | -18.11500 | 35719 ft | 473 kts | 77° |
| 2026-04-20 13:43 | 36.42070 | -18.03616 | 35718 ft | 473 kts | 77° |
| 2026-04-20 13:44 | 36.43684 | -17.95736 | 35725 ft | 474 kts | 77° |
| 2026-04-20 13:44 | 36.45300 | -17.87804 | 35732 ft | 474 kts | 77° |
| 2026-04-20 13:45 | 36.46906 | -17.79904 | 35737 ft | 473 kts | 77° |
| 2026-04-20 13:45 | 36.48508 | -17.71992 | 35740 ft | 473 kts | 77° |
| 2026-04-20 13:46 | 36.50105 | -17.64071 | 35737 ft | 473 kts | 77° |
| 2026-04-20 13:46 | 36.51697 | -17.56151 | 35738 ft | 473 kts | 77° |
| 2026-04-20 13:47 | 36.53279 | -17.48250 | 35737 ft | 474 kts | 77° |
| 2026-04-20 13:47 | 36.54862 | -17.40312 | 35738 ft | 473 kts | 78° |
| 2026-04-20 13:48 | 36.56440 | -17.32370 | 35735 ft | 473 kts | 78° |
| 2026-04-20 13:48 | 36.58002 | -17.24479 | 35736 ft | 473 kts | 78° |
| 2026-04-20 13:49 | 36.59562 | -17.16567 | 35734 ft | 473 kts | 78° |
| 2026-04-20 13:49 | 36.61123 | -17.08618 | 35735 ft | 473 kts | 78° |
| 2026-04-20 13:50 | 36.62676 | -17.00693 | 35734 ft | 472 kts | 79° |
| 2026-04-20 13:50 | 36.64216 | -16.92787 | 35744 ft | 472 kts | 79° |
| 2026-04-20 13:51 | 36.65757 | -16.84857 | 35731 ft | 472 kts | 79° |
| 2026-04-20 13:51 | 36.67297 | -16.76898 | 35733 ft | 472 kts | 79° |
| 2026-04-20 13:52 | 36.68821 | -16.68985 | 35733 ft | 472 kts | 79° |
| 2026-04-20 13:52 | 36.70343 | -16.61060 | 35734 ft | 472 kts | 79° |
| 2026-04-20 13:53 | 36.71863 | -16.53121 | 35736 ft | 473 kts | 79° |
| 2026-04-20 13:53 | 36.73381 | -16.45146 | 35735 ft | 474 kts | 79° |
| 2026-04-20 13:54 | 36.74886 | -16.37222 | 35735 ft | 473 kts | 79° |
| 2026-04-20 13:54 | 36.76392 | -16.29257 | 35726 ft | 472 kts | 80° |
| 2026-04-20 13:55 | 36.77887 | -16.21318 | 35725 ft | 471 kts | 81° |
| 2026-04-20 13:55 | 36.79377 | -16.13376 | 35723 ft | 471 kts | 80° |
| 2026-04-20 13:56 | 36.80859 | -16.05432 | 35733 ft | 471 kts | 80° |
| 2026-04-20 13:56 | 36.82344 | -15.97458 | 35728 ft | 472 kts | 81° |
| 2026-04-20 13:57 | 36.83809 | -15.89553 | 35737 ft | 472 kts | 81° |
| 2026-04-20 13:57 | 36.85283 | -15.81577 | 35744 ft | 472 kts | 81° |
| 2026-04-20 13:58 | 36.86748 | -15.73613 | 35744 ft | 471 kts | 81° |
| 2026-04-20 13:58 | 36.88205 | -15.65658 | 35727 ft | 470 kts | 81° |
| 2026-04-20 13:59 | 36.89652 | -15.57722 | 35743 ft | 470 kts | 81° |
| 2026-04-20 13:59 | 36.91091 | -15.49793 | 35740 ft | 470 kts | 81° |
| 2026-04-20 14:00 | 36.92529 | -15.41852 | 35755 ft | 470 kts | 81° |
| 2026-04-20 14:00 | 36.93955 | -15.33937 | 35756 ft | 470 kts | 82° |
| 2026-04-20 14:01 | 36.95383 | -15.25976 | 35755 ft | 469 kts | 82° |
| 2026-04-20 14:01 | 36.96803 | -15.18030 | 35747 ft | 469 kts | 82° |
| 2026-04-20 14:02 | 36.98212 | -15.10121 | 35758 ft | 468 kts | 82° |
| 2026-04-20 14:02 | 36.99621 | -15.02170 | 35753 ft | 467 kts | 82° |
| 2026-04-20 14:03 | 37.01183 | -14.94300 | 35757 ft | 469 kts | 80° |
| 2026-04-20 14:03 | 37.02834 | -14.86421 | 35741 ft | 469 kts | 80° |
| 2026-04-20 14:04 | 37.04477 | -14.78554 | 35739 ft | 468 kts | 80° |
| 2026-04-20 14:04 | 37.06107 | -14.70709 | 35747 ft | 469 kts | 80° |
| 2026-04-20 14:05 | 37.07734 | -14.62825 | 35752 ft | 470 kts | 81° |
| 2026-04-20 14:05 | 37.09360 | -14.54922 | 35753 ft | 469 kts | 81° |
| 2026-04-20 14:06 | 37.10980 | -14.47022 | 35753 ft | 469 kts | 81° |
| 2026-04-20 14:06 | 37.12585 | -14.39167 | 35759 ft | 469 kts | 81° |
| 2026-04-20 14:07 | 37.14196 | -14.31251 | 35758 ft | 469 kts | 81° |
| 2026-04-20 14:07 | 37.15804 | -14.23316 | 35756 ft | 470 kts | 81° |
| 2026-04-20 14:08 | 37.17405 | -14.15392 | 35770 ft | 470 kts | 82° |
| 2026-04-20 14:08 | 37.18996 | -14.07484 | 35760 ft | 470 kts | 81° |
| 2026-04-20 14:09 | 37.20585 | -13.99559 | 35761 ft | 470 kts | 81° |
| 2026-04-20 14:09 | 37.22168 | -13.91642 | 35758 ft | 471 kts | 81° |
| 2026-04-20 14:10 | 37.23752 | -13.83683 | 35769 ft | 470 kts | 81° |
| 2026-04-20 14:10 | 37.25322 | -13.75767 | 35767 ft | 470 kts | 82° |
| 2026-04-20 14:11 | 37.26889 | -13.67830 | 35772 ft | 471 kts | 81° |
| 2026-04-20 14:11 | 37.28455 | -13.59866 | 35770 ft | 471 kts | 81° |
| 2026-04-20 14:12 | 37.30022 | -13.51872 | 35767 ft | 472 kts | 81° |
| 2026-04-20 14:12 | 37.31583 | -13.43881 | 35771 ft | 472 kts | 81° |
| 2026-04-20 14:13 | 37.33138 | -13.35892 | 35772 ft | 472 kts | 81° |
| 2026-04-20 14:13 | 37.34687 | -13.27892 | 35779 ft | 472 kts | 82° |
| 2026-04-20 14:14 | 37.36224 | -13.19927 | 35783 ft | 472 kts | 81° |
| 2026-04-20 14:14 | 37.37766 | -13.11903 | 35794 ft | 473 kts | 82° |
| 2026-04-20 14:15 | 37.39304 | -13.03874 | 35798 ft | 473 kts | 82° |
| 2026-04-20 14:15 | 37.40840 | -12.95831 | 35792 ft | 473 kts | 81° |
| 2026-04-20 14:16 | 37.42363 | -12.87819 | 35798 ft | 473 kts | 81° |
| 2026-04-20 14:16 | 37.43883 | -12.79779 | 35804 ft | 473 kts | 81° |
| 2026-04-20 14:17 | 37.45398 | -12.71746 | 35799 ft | 474 kts | 81° |
| 2026-04-20 14:17 | 37.46914 | -12.63668 | 35804 ft | 475 kts | 81° |
| 2026-04-20 14:18 | 37.48424 | -12.55592 | 35816 ft | 476 kts | 81° |
| 2026-04-20 14:18 | 37.49928 | -12.47517 | 35815 ft | 475 kts | 81° |
| 2026-04-20 14:19 | 37.51427 | -12.39438 | 35822 ft | 475 kts | 81° |
| 2026-04-20 14:19 | 37.52914 | -12.31388 | 35826 ft | 475 kts | 81° |
| 2026-04-20 14:20 | 37.54420 | -12.23203 | 35821 ft | 474 kts | 81° |
| 2026-04-20 14:20 | 37.55903 | -12.15111 | 35822 ft | 475 kts | 81° |
| 2026-04-20 14:21 | 37.57370 | -12.07066 | 35831 ft | 475 kts | 81° |
| 2026-04-20 14:21 | 37.58850 | -11.98916 | 35836 ft | 475 kts | 81° |
| 2026-04-20 14:22 | 37.60314 | -11.90830 | 35844 ft | 475 kts | 81° |
| 2026-04-20 14:22 | 37.61779 | -11.82705 | 35849 ft | 476 kts | 81° |
| 2026-04-20 14:23 | 37.63237 | -11.74584 | 35844 ft | 475 kts | 81° |
| 2026-04-20 14:23 | 37.64684 | -11.66479 | 35844 ft | 475 kts | 81° |
| 2026-04-20 14:24 | 37.66119 | -11.58414 | 35847 ft | 475 kts | 81° |
| 2026-04-20 14:24 | 37.67559 | -11.50287 | 35848 ft | 475 kts | 81° |
| 2026-04-20 14:25 | 37.68995 | -11.42155 | 35852 ft | 475 kts | 81° |
| 2026-04-20 14:25 | 37.70416 | -11.34060 | 35852 ft | 475 kts | 82° |
| 2026-04-20 14:26 | 37.71847 | -11.25903 | 35851 ft | 475 kts | 81° |
| 2026-04-20 14:26 | 37.72870 | -11.21920 | 35847 ft | 481 kts | 70° |
| 2026-04-20 14:26 | 37.74434 | -11.18148 | 35848 ft | 485 kts | 60° |
| 2026-04-20 14:27 | 37.78835 | -11.11697 | 35855 ft | 489 kts | 45° |
| 2026-04-20 14:27 | 37.83783 | -11.05841 | 35847 ft | 489 kts | 44° |
| 2026-04-20 14:28 | 37.88733 | -10.99956 | 35847 ft | 489 kts | 45° |
| 2026-04-20 14:28 | 37.93659 | -10.94018 | 35848 ft | 488 kts | 45° |
| 2026-04-20 14:29 | 37.98550 | -10.88080 | 35846 ft | 488 kts | 45° |
| 2026-04-20 14:29 | 38.03426 | -10.82142 | 35851 ft | 488 kts | 45° |
| 2026-04-20 14:30 | 38.08293 | -10.76207 | 35853 ft | 487 kts | 45° |
| 2026-04-20 14:30 | 38.13184 | -10.70225 | 35853 ft | 488 kts | 45° |
| 2026-04-20 14:31 | 38.18066 | -10.64244 | 35855 ft | 488 kts | 45° |
| 2026-04-20 14:31 | 38.22906 | -10.58303 | 35506 ft | 485 kts | 45° |
| 2026-04-20 14:32 | 38.25338 | -10.55315 | 34736 ft | 489 kts | 45° |
| 2026-04-20 14:32 | 38.27790 | -10.52296 | 33694 ft | 496 kts | 45° |
| 2026-04-20 14:32 | 38.30263 | -10.49248 | 32732 ft | 499 kts | 45° |
| 2026-04-20 14:32 | 38.32758 | -10.46170 | 31830 ft | 501 kts | 45° |
| 2026-04-20 14:33 | 38.35251 | -10.43092 | 30941 ft | 502 kts | 45° |
| 2026-04-20 14:33 | 38.37748 | -10.40006 | 30052 ft | 502 kts | 44° |
| 2026-04-20 14:33 | 38.40261 | -10.36900 | 29136 ft | 503 kts | 44° |
| 2026-04-20 14:33 | 38.42735 | -10.33839 | 28188 ft | 504 kts | 45° |
| 2026-04-20 14:34 | 38.45287 | -10.30676 | 27171 ft | 506 kts | 45° |
| 2026-04-20 14:34 | 38.47800 | -10.27559 | 26155 ft | 507 kts | 45° |
| 2026-04-20 14:34 | 38.50317 | -10.24433 | 25166 ft | 507 kts | 45° |
| 2026-04-20 14:34 | 38.52835 | -10.21303 | 24472 ft | 500 kts | 45° |
| 2026-04-20 14:35 | 38.55318 | -10.18213 | 23863 ft | 492 kts | 45° |
| 2026-04-20 14:35 | 38.57732 | -10.15206 | 23244 ft | 486 kts | 45° |
| 2026-04-20 14:35 | 38.60133 | -10.12213 | 22579 ft | 480 kts | 45° |
| 2026-04-20 14:35 | 38.62517 | -10.09237 | 21931 ft | 475 kts | 45° |
| 2026-04-20 14:36 | 38.64847 | -10.06328 | 21643 ft | 461 kts | 45° |
| 2026-04-20 14:36 | 38.67121 | -10.03486 | 21249 ft | 452 kts | 45° |
| 2026-04-20 14:36 | 38.69341 | -10.00708 | 20665 ft | 448 kts | 45° |
| 2026-04-20 14:36 | 38.71573 | -9.97912 | 20050 ft | 445 kts | 45° |
| 2026-04-20 14:37 | 38.73752 | -9.95178 | 19488 ft | 441 kts | 45° |
| 2026-04-20 14:37 | 38.75941 | -9.92432 | 18930 ft | 437 kts | 45° |
| 2026-04-20 14:37 | 38.78081 | -9.89745 | 18348 ft | 434 kts | 45° |
| 2026-04-20 14:37 | 38.80206 | -9.87071 | 17773 ft | 430 kts | 45° |
| 2026-04-20 14:38 | 38.82349 | -9.84372 | 17249 ft | 425 kts | 45° |
| 2026-04-20 14:38 | 38.84420 | -9.81764 | 16724 ft | 421 kts | 45° |
| 2026-04-20 14:38 | 38.86501 | -9.79140 | 16197 ft | 416 kts | 45° |
| 2026-04-20 14:38 | 38.88537 | -9.76571 | 15676 ft | 412 kts | 45° |
| 2026-04-20 14:39 | 38.90589 | -9.73982 | 15169 ft | 408 kts | 45° |
| 2026-04-20 14:39 | 38.92576 | -9.71472 | 14618 ft | 405 kts | 45° |
| 2026-04-20 14:39 | 38.94590 | -9.68925 | 14071 ft | 401 kts | 45° |
| 2026-04-20 14:39 | 38.96563 | -9.66428 | 13505 ft | 397 kts | 45° |
| 2026-04-20 14:40 | 38.98509 | -9.63961 | 13023 ft | 393 kts | 45° |
| 2026-04-20 14:40 | 39.00440 | -9.61510 | 12483 ft | 391 kts | 45° |
| 2026-04-20 14:40 | 39.02358 | -9.59075 | 11952 ft | 388 kts | 45° |
| 2026-04-20 14:40 | 39.04265 | -9.56653 | 11397 ft | 386 kts | 45° |
| 2026-04-20 14:41 | 39.06162 | -9.54243 | 10887 ft | 384 kts | 45° |
| 2026-04-20 14:41 | 39.08055 | -9.51835 | 10427 ft | 379 kts | 45° |
| 2026-04-20 14:41 | 39.09886 | -9.49505 | 10208 ft | 368 kts | 45° |
| 2026-04-20 14:41 | 39.11693 | -9.47203 | 9966 ft | 357 kts | 45° |
| 2026-04-20 14:42 | 39.13407 | -9.44984 | 9805 ft | 346 kts | 48° |
| 2026-04-20 14:42 | 39.14604 | -9.42415 | 9463 ft | 327 kts | 75° |
| 2026-04-20 14:42 | 39.14792 | -9.39641 | 9159 ft | 304 kts | 96° |
| 2026-04-20 14:42 | 39.14577 | -9.37012 | 8875 ft | 287 kts | 98° |
| 2026-04-20 14:43 | 39.14398 | -9.34515 | 8543 ft | 275 kts | 97° |
| 2026-04-20 14:43 | 39.14300 | -9.32104 | 8017 ft | 272 kts | 95° |
| 2026-04-20 14:43 | 39.14256 | -9.29675 | 7455 ft | 269 kts | 93° |
| 2026-04-20 14:43 | 39.14274 | -9.27280 | 6913 ft | 268 kts | 85° |
| 2026-04-20 14:44 | 39.14849 | -9.25023 | 6354 ft | 268 kts | 61° |
| 2026-04-20 14:44 | 39.15826 | -9.23009 | 5844 ft | 264 kts | 65° |
| 2026-04-20 14:44 | 39.16198 | -9.20776 | 5264 ft | 256 kts | 101° |
| 2026-04-20 14:44 | 39.15499 | -9.18792 | 4757 ft | 246 kts | 136° |
| 2026-04-20 14:45 | 39.14132 | -9.17549 | 4255 ft | 239 kts | 154° |
| 2026-04-20 14:45 | 39.12667 | -9.16573 | 4005 ft | 231 kts | 153° |
| 2026-04-20 14:45 | 39.11309 | -9.15602 | 3970 ft | 217 kts | 152° |
| 2026-04-20 14:45 | 39.10020 | -9.14630 | 3975 ft | 216 kts | 150° |
| 2026-04-20 14:46 | 39.08733 | -9.13620 | 3981 ft | 216 kts | 150° |
| 2026-04-20 14:46 | 39.07468 | -9.12603 | 3987 ft | 216 kts | 149° |
| 2026-04-20 14:46 | 39.06191 | -9.11563 | 4000 ft | 214 kts | 149° |
| 2026-04-20 14:46 | 39.05003 | -9.10586 | 4048 ft | 194 kts | 149° |
| 2026-04-20 14:47 | 39.03882 | -9.09663 | 4007 ft | 189 kts | 149° |
| 2026-04-20 14:47 | 39.02776 | -9.08752 | 3997 ft | 189 kts | 149° |
| 2026-04-20 14:47 | 39.01671 | -9.07842 | 3994 ft | 188 kts | 149° |
| 2026-04-20 14:48 | 38.99458 | -9.06020 | 3990 ft | 188 kts | 149° |
| 2026-04-20 14:48 | 38.98355 | -9.05112 | 3988 ft | 188 kts | 149° |
| 2026-04-20 14:48 | 38.97243 | -9.04245 | 3972 ft | 188 kts | 158° |
| 2026-04-20 14:48 | 38.95968 | -9.04102 | 3762 ft | 186 kts | 191° |
| 2026-04-20 14:49 | 38.94750 | -9.04603 | 3506 ft | 179 kts | 202° |
| 2026-04-20 14:49 | 38.93650 | -9.05230 | 3279 ft | 164 kts | 204° |
| 2026-04-20 14:49 | 38.92648 | -9.05813 | 3039 ft | 154 kts | 204° |
| 2026-04-20 14:49 | 38.91667 | -9.06363 | 2830 ft | 152 kts | 203° |
| 2026-04-20 14:50 | 38.90700 | -9.06889 | 2640 ft | 151 kts | 203° |
| 2026-04-20 14:50 | 38.89722 | -9.07413 | 2450 ft | 151 kts | 203° |
| 2026-04-20 14:50 | 38.88761 | -9.07924 | 2267 ft | 150 kts | 202° |
| 2026-04-20 14:50 | 38.87788 | -9.08440 | 2078 ft | 150 kts | 202° |
| 2026-04-20 14:51 | 38.86822 | -9.08953 | 1891 ft | 150 kts | 203° |
| 2026-04-20 14:51 | 38.85869 | -9.09460 | 1703 ft | 149 kts | 202° |
| 2026-04-20 14:51 | 38.84907 | -9.09973 | 1509 ft | 149 kts | 203° |
| 2026-04-20 14:51 | 38.83954 | -9.10480 | 1318 ft | 148 kts | 203° |
| 2026-04-20 14:52 | 38.82995 | -9.10992 | 1127 ft | 148 kts | 204° |
| 2026-04-20 14:52 | 38.82053 | -9.11495 | 933 ft | 148 kts | 201° |
| 2026-04-20 14:52 | 38.81103 | -9.11994 | 722 ft | 147 kts | 204° |
| 2026-04-20 14:52 | 38.80162 | -9.12500 | 524 ft | 145 kts | 204° |
| 2026-04-20 14:53 | 38.79241 | -9.12996 | 371 ft | 141 kts | 204° |
| 2026-04-20 14:53 | 38.78392 | -9.13450 | 357 ft | 114 kts | 205° |
| 2026-04-20 14:53 | 38.77817 | -9.13763 | 357 ft | 65 kts | 203° |
| 2026-04-20 14:53 | 38.77445 | -9.13957 | 352 ft | 45 kts | 204° |
| 2026-04-20 14:54 | 38.77279 | -9.14048 | 348 ft | 19 kts | 203° |
| 2026-04-20 14:54 | 38.77150 | -9.14065 | 344 ft | 20 kts | 133° |
| 2026-04-20 14:54 | 38.77119 | -9.13982 | 342 ft | 5 kts | 112° |
| 2026-04-20 14:54 | 38.77116 | -9.13932 | 341 ft | 6 kts | 68° |
| 2026-04-20 14:55 | 38.77155 | -9.13886 | 341 ft | 7 kts | 28° |
| 2026-04-20 14:55 | 38.77199 | -9.13856 | 341 ft | 7 kts | 27° |
| 2026-04-20 14:55 | 38.77226 | -9.13839 | 341 ft | 0 kts | 25° |
| 2026-04-20 14:56 | 38.77250 | -9.13786 | 340 ft | 12 kts | 81° |
| 2026-04-20 14:56 | 38.77267 | -9.13666 | 336 ft | 15 kts | 75° |
| 2026-04-20 14:56 | 38.77284 | -9.13570 | 333 ft | 12 kts | 77° |
| 2026-04-20 14:57 | 38.77303 | -9.13465 | 329 ft | 13 kts | 77° |
| 2026-04-20 14:57 | 38.77320 | -9.13339 | 327 ft | 15 kts | 79° |
| 2026-04-20 14:57 | 38.77279 | -9.13245 | 325 ft | 12 kts | 166° |
| 2026-04-20 14:57 | 38.77192 | -9.13222 | 325 ft | 13 kts | 169° |
| 2026-04-20 14:58 | 38.77154 | -9.13188 | 324 ft | 6 kts | 95° |
| 2026-04-20 14:58 | 38.77160 | -9.13132 | 324 ft | 4 kts | 78° |
| 2026-04-20 14:58 | 38.77160 | -9.13131 | 324 ft | 0 kts | 78° |